Time;durP1;ratioP1;P1;durP2;ratioP2;P2;SDS_P1;SDS_P2;PMS_P1;PMS_P2;Temp;Humidity;BMP_temperature;BMP_pressure;BME280_temperature;BME280_humidity;BME280_pressure;Samples;Min_cycle;Max_cycle;Signal;HPM_P1;HPM_P2
2021/12/12 00:01:51;;;;;;;;;;;;;;;;;;110459;1275;9699;-77
2021/12/12 00:04:31;;;;;;;;;;;;;;;;;;110459;1277;8935;-77
2021/12/12 00:07:03;;;;;;;;;;;;;;;;;;110807;1277;8382;-77
2021/12/12 00:09:35;;;;;;;;;;;;;;;;;;110499;1277;9729;-78
2021/12/12 00:12:19;;;;;;;;;;;;;;;;;;110334;1278;8961;-79
2021/12/12 00:14:47;;;;;;;;;;;;;;;;;;110508;1277;9690;-77
2021/12/12 00:17:16;;;;;;;;;;;;;;;;;;110320;1278;8016;-78
2021/12/12 00:19:44;;;;;;;;;;;;;;;;;;110163;1281;8788;-77
2021/12/12 00:22:17;;;;;;;;;;;;;;;;;;110471;1278;9705;-77
2021/12/12 00:24:46;;;;;;;;;;;;;;;;;;110468;1278;8363;-77
2021/12/12 00:27:14;;;;;;;;;;;;;;;;;;110449;1278;8775;-76
2021/12/12 00:29:43;;;;;;;;;;;;;;;;;;110458;1276;9747;-77
2021/12/12 00:32:14;;;;;;;;;;;;;;;;;;110464;1278;7982;-76
2021/12/12 00:34:48;;;;;;;;;;;;;;;;;;110460;1278;8771;-77
2021/12/12 00:37:18;;;;;;;;;;;;;;;;;;110450;1278;8464;-78
2021/12/12 00:39:50;;;;;;;;;;;;;;;;;;110397;1279;9801;-78
2021/12/12 00:42:22;;;;;;;;;;;;;;;;;;110432;1279;9732;-78
2021/12/12 00:44:54;;;;;;;;;;;;;;;;;;110365;1279;8103;-77
2021/12/12 00:47:22;;;;;;;;;;;;;;;;;;110353;1278;9032;-77
2021/12/12 00:50:13;;;;;;;;;;;;;;;;;;110455;1279;8147;-77
2021/12/12 00:52:43;;;;;;;;;;;;;;;;;;110381;1279;9694;-77
2021/12/12 00:55:12;;;;;;;;;;;;;;;;;;110434;1278;8041;-77
2021/12/12 00:57:40;;;;;;;;;;;;;;;;;;110469;1278;8911;-78
2021/12/12 01:00:13;;;;;;;;;;;;;;;;;;110440;1278;9711;-77
2021/12/12 01:02:42;;;;;;;;;;;;;;;;;;110443;1278;7979;-77
2021/12/12 01:05:11;;;;;;;;;;;;;;;;;;110487;1278;8975;-78
2021/12/12 01:07:42;;;;;;;;;;;;;;;;;;110430;1277;8960;-77
2021/12/12 01:10:13;;;;;;;;;;;;;;;;;;110419;1279;7970;-78
2021/12/12 01:12:41;;;;;;;;;;;;;;;;;;110440;1277;9691;-78
2021/12/12 01:15:38;;;;;;;;;;;;;;;;;;110430;1275;8788;-77
2021/12/12 01:18:13;;;;;;;;;;;;;;;;;;110424;1276;8926;-77
2021/12/12 01:20:50;;;;;;;;;;;;;;;;;;110469;1276;8846;-77
2021/12/12 01:23:19;;;;;;;;;;;;;;;;;;110106;1278;8837;-78
2021/12/12 01:25:48;;;;;;;;;;;;;;;;;;110373;1276;8093;-76
2021/12/12 01:28:20;;;;;;;;;;;;;;;;;;110326;1277;9677;-77
2021/12/12 01:30:51;;;;;;;;;;;;;;;;;;110361;1276;8019;-78
2021/12/12 01:33:32;;;;;;;;;;;;;;;;;;110455;1276;9710;-78
2021/12/12 01:36:07;;;;;;;;;;;;;;;;;;110325;1277;9694;-78
2021/12/12 01:41:38;;;;;;;;;;;;;;;;;;110435;1276;8043;-78
2021/12/12 01:44:14;;;;;;;;;;;;;;;;;;110341;1278;8970;-79
2021/12/12 01:46:47;;;;;;;;;;;;;;;;;;110472;1278;8783;-78
2021/12/12 01:49:27;;;;;;;;;;;;;;;;;;110450;1276;8988;-77
2021/12/12 01:51:57;;;;;;;;;;;;;;;;;;110478;1278;9707;-77
2021/12/12 01:54:30;;;;;;;;;;;;;;;;;;110194;1278;8363;-77
2021/12/12 01:57:00;;;;;;;;;;;;;;;;;;110182;1279;9702;-75
2021/12/12 01:59:35;;;;;;;;;;;;;;;;;;110478;1276;9709;-77
2021/12/12 02:02:08;;;;;;;;;;;;;;;;;;110464;1276;8379;-76
2021/12/12 02:04:43;;;;;;;;;;;;;;;;;;110467;1276;9689;-77
2021/12/12 02:07:13;;;;;;;;;;;;;;;;;;110481;1278;8162;-78
2021/12/12 02:09:42;;;;;;;;;;;;;;;;;;110657;1277;9524;-77
2021/12/12 02:12:12;;;;;;;;;;;;;;;;;;110818;1275;8910;-77
2021/12/12 02:14:42;;;;;;;;;;;;;;;;;;110790;1277;9717;-77
2021/12/12 02:17:20;;;;;;;;;;;;;;;;;;110420;1277;7963;-77
2021/12/12 02:22:50;;;;;;;;;;;;;;;;;;110545;1276;8412;-78
2021/12/12 02:36:32;;;;;;;;;;;;;;;;;;110565;1277;8770;-78
2021/12/12 02:39:07;;;;;;;;;;;;;;;;;;110815;1277;9715;-78
2021/12/12 02:41:35;;;;;;;;;;;;;;;;;;110265;1278;10134;-77
2021/12/12 02:44:05;;;;;;;;;;;;;;;;;;110446;1277;8611;-78
2021/12/12 02:46:36;;;;;;;;;;;;;;;;;;110836;1277;8008;-77
2021/12/12 02:49:09;;;;;;;;;;;;;;;;;;110837;1276;9045;-75
2021/12/12 02:51:39;;;;;;;;;;;;;;;;;;110257;1277;7984;-78
2021/12/12 02:54:11;;;;;;;;;;;;;;;;;;110224;1278;8806;-76
2021/12/12 02:56:42;;;;;;;;;;;;;;;;;;110294;1277;8946;-77
2021/12/12 02:59:12;;;;;;;;;;;;;;;;;;110551;1277;8043;-77
2021/12/12 03:01:45;;;;;;;;;;;;;;;;;;110234;1277;8808;-78
2021/12/12 03:04:15;;;;;;;;;;;;;;;;;;110503;1277;9750;-78
2021/12/12 03:06:44;;;;;;;;;;;;;;;;;;110776;1275;7953;-79
2021/12/12 03:09:16;;;;;;;;;;;;;;;;;;110657;1275;9690;-78
2021/12/12 03:11:48;;;;;;;;;;;;;;;;;;110787;1275;8777;-76
2021/12/12 03:14:17;;;;;;;;;;;;;;;;;;110538;1277;9791;-78
2021/12/12 03:16:46;;;;;;;;;;;;;;;;;;110820;1277;8373;-78
2021/12/12 03:19:15;;;;;;;;;;;;;;;;;;110313;1278;8796;-76
2021/12/12 03:21:45;;;;;;;;;;;;;;;;;;110484;1278;9701;-76
2021/12/12 03:24:33;;;;;;;;;;;;;;;;;;110442;1276;7962;-78
2021/12/12 03:27:04;;;;;;;;;;;;;;;;;;110428;1276;9437;-77
2021/12/12 03:29:35;;;;;;;;;;;;;;;;;;110451;1277;8044;-79
2021/12/12 03:32:11;;;;;;;;;;;;;;;;;;110767;1277;9242;-77
2021/12/12 03:34:45;;;;;;;;;;;;;;;;;;110699;1276;8011;-76
2021/12/12 03:37:16;;;;;;;;;;;;;;;;;;110188;1279;7988;-76
2021/12/12 03:39:49;;;;;;;;;;;;;;;;;;110771;1275;8964;-76
2021/12/12 03:42:22;;;;;;;;;;;;;;;;;;110455;1277;9713;-77
2021/12/12 03:44:52;;;;;;;;;;;;;;;;;;110790;1276;8253;-77
2021/12/12 03:47:31;;;;;;;;;;;;;;;;;;110822;1275;8975;-77
2021/12/12 03:50:02;;;;;;;;;;;;;;;;;;110450;1277;9690;-77
2021/12/12 03:52:30;;;;;;;;;;;;;;;;;;110774;1277;9767;-77
2021/12/12 03:55:00;;;;;;;;;;;;;;;;;;110809;1276;8363;-77
2021/12/12 03:57:29;;;;;;;;;;;;;;;;;;110807;1277;8538;-77
2021/12/12 03:59:57;;;;;;;;;;;;;;;;;;110781;1277;9693;-77
2021/12/12 04:02:27;;;;;;;;;;;;;;;;;;110762;1277;8431;-77
2021/12/12 04:04:58;;;;;;;;;;;;;;;;;;110787;1273;9690;-79
2021/12/12 04:07:27;;;;;;;;;;;;;;;;;;110805;1276;8761;-78
2021/12/12 04:09:58;;;;;;;;;;;;;;;;;;110774;1277;9123;-78
2021/12/12 04:12:28;;;;;;;;;;;;;;;;;;110789;1277;8784;-77
2021/12/12 04:14:57;;;;;;;;;;;;;;;;;;110807;1277;9710;-77
2021/12/12 04:17:28;;;;;;;;;;;;;;;;;;110804;1276;8012;-77
2021/12/12 04:20:01;;;;;;;;;;;;;;;;;;110582;1276;9718;-77
2021/12/12 04:22:33;;;;;;;;;;;;;;;;;;110810;1277;8937;-77
2021/12/12 04:25:04;;;;;;;;;;;;;;;;;;110508;1277;8377;-76
2021/12/12 04:27:32;;;;;;;;;;;;;;;;;;110525;1279;8053;-77
2021/12/12 04:30:03;;;;;;;;;;;;;;;;;;110520;1278;8976;-77
2021/12/12 04:32:33;;;;;;;;;;;;;;;;;;110766;1277;8371;-79
2021/12/12 04:35:07;;;;;;;;;;;;;;;;;;110812;1276;9066;-77
2021/12/12 04:37:36;;;;;;;;;;;;;;;;;;110802;1277;8032;-78
2021/12/12 04:40:08;;;;;;;;;;;;;;;;;;110463;1277;444427;-78
2021/12/12 04:42:40;;;;;;;;;;;;;;;;;;110565;1276;9706;-80
2021/12/12 04:45:29;;;;;;;;;;;;;;;;;;110815;1277;8941;-77
2021/12/12 04:51:01;;;;;;;;;;;;;;;;;;110800;1277;9707;-77
2021/12/12 04:53:52;;;;;;;;;;;;;;;;;;110755;1277;9713;-77
2021/12/12 04:56:39;;;;;;;;;;;;;;;;;;110816;1277;7977;-78
2021/12/12 04:59:12;;;;;;;;;;;;;;;;;;110788;1275;8913;-77
2021/12/12 05:01:45;;;;;;;;;;;;;;;;;;110785;1276;8065;-77
2021/12/12 05:04:15;;;;;;;;;;;;;;;;;;110801;1277;8030;-76
2021/12/12 05:06:49;;;;;;;;;;;;;;;;;;110758;1277;8819;-79
2021/12/12 05:09:17;;;;;;;;;;;;;;;;;;110527;1277;7983;-77
2021/12/12 05:11:53;;;;;;;;;;;;;;;;;;110771;1275;8790;-77
2021/12/12 05:14:25;;;;;;;;;;;;;;;;;;110809;1277;8973;-77
2021/12/12 05:17:12;;;;;;;;;;;;;;;;;;110763;1277;9690;-80
2021/12/12 05:19:46;;;;;;;;;;;;;;;;;;110515;1277;8033;-76
2021/12/12 05:22:20;;;;;;;;;;;;;;;;;;110403;1277;8955;-77
2021/12/12 05:24:51;;;;;;;;;;;;;;;;;;110749;1277;8362;-77
2021/12/12 05:27:25;;;;;;;;;;;;;;;;;;110793;1277;9689;-77
2021/12/12 05:29:59;;;;;;;;;;;;;;;;;;110812;1277;9219;-77
2021/12/12 05:32:29;;;;;;;;;;;;;;;;;;110804;1277;8261;-77
2021/12/12 05:35:00;;;;;;;;;;;;;;;;;;110779;1276;8993;-78
2021/12/12 05:37:28;;;;;;;;;;;;;;;;;;110804;1277;9690;-77
2021/12/12 05:40:02;;;;;;;;;;;;;;;;;;110795;1277;8090;-77
2021/12/12 05:42:32;;;;;;;;;;;;;;;;;;110764;1274;8419;-76
2021/12/12 05:45:02;;;;;;;;;;;;;;;;;;110779;1276;8879;-77
2021/12/12 05:47:30;;;;;;;;;;;;;;;;;;110808;1277;9678;-75
2021/12/12 05:50:00;;;;;;;;;;;;;;;;;;110467;1277;8385;-76
2021/12/12 05:52:29;;;;;;;;;;;;;;;;;;110439;1279;8771;-79
2021/12/12 05:54:57;;;;;;;;;;;;;;;;;;110447;1278;9694;-77
2021/12/12 05:57:27;;;;;;;;;;;;;;;;;;110168;1279;8827;-80
2021/12/12 05:59:57;;;;;;;;;;;;;;;;;;110352;1277;8925;-78
2021/12/12 06:02:26;;;;;;;;;;;;;;;;;;110527;1278;8023;-78
2021/12/12 06:04:56;;;;;;;;;;;;;;;;;;110312;1276;8892;-79
2021/12/12 06:07:25;;;;;;;;;;;;;;;;;;110430;1278;9697;-77
2021/12/12 06:09:53;;;;;;;;;;;;;;;;;;110516;1276;8363;-78
2021/12/12 06:12:21;;;;;;;;;;;;;;;;;;110163;1276;9692;-79
2021/12/12 06:14:51;;;;;;;;;;;;;;;;;;110176;1278;7966;-78
2021/12/12 06:17:23;;;;;;;;;;;;;;;;;;110227;1279;8966;-80
2021/12/12 06:19:53;;;;;;;;;;;;;;;;;;110217;1279;8799;-78
2021/12/12 06:22:23;;;;;;;;;;;;;;;;;;110366;1277;9703;-79
2021/12/12 06:24:53;;;;;;;;;;;;;;;;;;110112;1280;9694;-77
2021/12/12 06:27:22;;;;;;;;;;;;;;;;;;110269;1280;7979;-81
2021/12/12 06:29:53;;;;;;;;;;;;;;;;;;110281;1280;9696;-79
2021/12/12 06:32:24;;;;;;;;;;;;;;;;;;110147;1281;8790;-80
2021/12/12 06:34:56;;;;;;;;;;;;;;;;;;110202;1280;8079;-79
2021/12/12 06:37:28;;;;;;;;;;;;;;;;;;110303;1281;9712;-80
2021/12/12 06:39:57;;;;;;;;;;;;;;;;;;110173;1279;9705;-79
2021/12/12 06:42:27;;;;;;;;;;;;;;;;;;110508;1278;7963;-78
2021/12/12 06:44:58;;;;;;;;;;;;;;;;;;110507;1278;7983;-78
2021/12/12 06:47:27;;;;;;;;;;;;;;;;;;110383;1278;8808;-77
2021/12/12 06:49:55;;;;;;;;;;;;;;;;;;110397;1277;9028;-77
2021/12/12 06:52:24;;;;;;;;;;;;;;;;;;110405;1278;8374;-78
2021/12/12 06:54:57;;;;;;;;;;;;;;;;;;110257;1279;8926;-80
2021/12/12 06:57:25;;;;;;;;;;;;;;;;;;110161;1279;9705;-80
2021/12/12 06:59:54;;;;;;;;;;;;;;;;;;110495;1277;8018;-77
2021/12/12 07:02:27;;;;;;;;;;;;;;;;;;110488;1277;8913;-80
2021/12/12 07:04:58;;;;;;;;;;;;;;;;;;110500;1277;8942;-79
2021/12/12 07:07:27;;;;;;;;;;;;;;;;;;110441;1278;9706;-79
2021/12/12 07:09:55;;;;;;;;;;;;;;;;;;110536;1277;8837;-77
2021/12/12 07:12:24;;;;;;;;;;;;;;;;;;110195;1278;8760;-79
2021/12/12 07:14:54;;;;;;;;;;;;;;;;;;110405;1279;9691;-77
2021/12/12 07:17:23;;;;;;;;;;;;;;;;;;110509;1277;8805;-79
2021/12/12 07:19:51;;;;;;;;;;;;;;;;;;110611;1277;9687;-79
2021/12/12 07:22:20;;;;;;;;;;;;;;;;;;110455;1277;8785;-79
2021/12/12 07:24:48;;;;;;;;;;;;;;;;;;110459;1276;9710;-77
2021/12/12 07:27:17;;;;;;;;;;;;;;;;;;110216;1279;8805;-79
2021/12/12 07:29:57;;;;;;;;;;;;;;;;;;110433;1279;8058;-80
2021/12/12 07:32:27;;;;;;;;;;;;;;;;;;110464;1276;8011;-81
2021/12/12 07:34:59;;;;;;;;;;;;;;;;;;110652;1274;9801;-83
2021/12/12 07:37:29;;;;;;;;;;;;;;;;;;110257;1277;8793;-84
2021/12/12 07:39:57;;;;;;;;;;;;;;;;;;110472;1276;8940;-81
2021/12/12 07:42:25;;;;;;;;;;;;;;;;;;110716;1277;10002;-80
2021/12/12 07:44:54;;;;;;;;;;;;;;;;;;110753;1276;8749;-83
2021/12/12 07:47:23;;;;;;;;;;;;;;;;;;110285;1279;8423;-80
2021/12/12 07:49:51;;;;;;;;;;;;;;;;;;110450;1278;8784;-80
2021/12/12 07:52:23;;;;;;;;;;;;;;;;;;110439;1274;7953;-81
2021/12/12 07:54:53;;;;;;;;;;;;;;;;;;110713;1276;8971;-80
2021/12/12 07:57:22;;;;;;;;;;;;;;;;;;110449;1277;9756;-79
2021/12/12 07:59:53;;;;;;;;;;;;;;;;;;110492;1276;8132;-79
2021/12/12 08:02:23;;;;;;;;;;;;;;;;;;110296;1278;9690;-83
2021/12/12 08:04:53;;;;;;;;;;;;;;;;;;110224;1279;8368;-82
2021/12/12 08:07:23;;;;;;;;;;;;;;;;;;110491;1276;8884;-85
2021/12/12 08:09:52;;;;;;;;;;;;;;;;;;110649;1276;9693;-82
2021/12/12 08:12:24;;;;;;;;;;;;;;;;;;110512;1277;8770;-82
2021/12/12 08:14:52;;;;;;;;;;;;;;;;;;110250;1277;9784;-81
2021/12/12 08:17:21;;;;;;;;;;;;;;;;;;110827;1275;7960;-84
2021/12/12 08:19:51;;;;;;;;;;;;;;;;;;110503;1277;8770;-83
2021/12/12 08:22:35;;;;;;;;;;;;;;;;;;110525;1277;9768;-86
2021/12/12 08:25:26;;;;;;;;;;;;;;;;;;110691;1273;7977;-81
2021/12/12 08:27:57;;;;;;;;;;;;;;;;;;110740;1275;8771;-82
2021/12/12 08:30:29;;;;;;;;;;;;;;;;;;110618;1276;8176;-83
2021/12/12 08:32:58;;;;;;;;;;;;;;;;;;110355;1277;9787;-82
2021/12/12 08:35:28;;;;;;;;;;;;;;;;;;110291;1277;8757;-83
2021/12/12 08:37:58;;;;;;;;;;;;;;;;;;110575;1277;7958;-83
2021/12/12 08:40:29;;;;;;;;;;;;;;;;;;110529;1277;8624;-83
2021/12/12 08:42:58;;;;;;;;;;;;;;;;;;110238;1277;8790;-81
2021/12/12 08:45:29;;;;;;;;;;;;;;;;;;110287;1277;7962;-82
2021/12/12 08:48:02;;;;;;;;;;;;;;;;;;110255;1277;8414;-82
2021/12/12 08:50:33;;;;;;;;;;;;;;;;;;110279;1277;9716;-82
2021/12/12 08:53:03;;;;;;;;;;;;;;;;;;110276;1277;9228;-82
2021/12/12 08:55:36;;;;;;;;;;;;;;;;;;110670;1277;8908;-81
2021/12/12 08:58:16;;;;;;;;;;;;;;;;;;110455;1277;9697;-82
2021/12/12 09:00:57;;;;;;;;;;;;;;;;;;110686;1277;8071;-81
2021/12/12 09:03:43;;;;;;;;;;;;;;;;;;110629;1277;8924;-81
2021/12/12 09:06:15;;;;;;;;;;;;;;;;;;110474;1277;8797;-81
2021/12/12 09:09:08;;;;;;;;;;;;;;;;;;110817;1277;9704;-81
2021/12/12 09:12:03;;;;;;;;;;;;;;;;;;110826;1277;7980;-82
2021/12/12 09:14:37;;;;;;;;;;;;;;;;;;110202;1279;9712;-82
2021/12/12 09:17:05;;;;;;;;;;;;;;;;;;110495;1275;8385;-82
2021/12/12 09:19:44;;;;;;;;;;;;;;;;;;110808;1275;8938;-84
2021/12/12 09:22:18;;;;;;;;;;;;;;;;;;110287;1277;9299;-82
2021/12/12 09:25:04;;;;;;;;;;;;;;;;;;110538;1277;8924;-81
2021/12/12 09:27:40;;;;;;;;;;;;;;;;;;110290;1277;8805;-81
2021/12/12 09:30:21;;;;;;;;;;;;;;;;;;110462;1277;8060;-82
2021/12/12 09:32:51;;;;;;;;;;;;;;;;;;110485;1277;8807;-84
2021/12/12 09:35:24;;;;;;;;;;;;;;;;;;110221;1279;8941;-82
2021/12/12 09:37:58;;;;;;;;;;;;;;;;;;110430;1277;9178;-81
2021/12/12 09:40:34;;;;;;;;;;;;;;;;;;110804;1277;8013;-81
2021/12/12 09:43:04;;;;;;;;;;;;;;;;;;110466;1277;9702;-81
2021/12/12 09:45:47;;;;;;;;;;;;;;;;;;110606;1276;8383;-82
2021/12/12 09:51:30;;;;;;;;;;;;;;;;;;110298;1277;8788;-81
2021/12/12 09:54:22;;;;;;;;;;;;;;;;;;110549;1277;9104;-81
2021/12/12 09:56:50;;;;;;;;;;;;;;;;;;110774;1277;8333;-81
2021/12/12 09:59:18;;;;;;;;;;;;;;;;;;110470;1277;8238;-82
2021/12/12 10:01:58;;;;;;;;;;;;;;;;;;110804;1276;9732;-81
2021/12/12 10:04:34;;;;;;;;;;;;;;;;;;110595;1277;8093;-81
2021/12/12 10:07:06;;;;;;;;;;;;;;;;;;110286;1277;9804;-80
2021/12/12 10:09:58;;;;;;;;;;;;;;;;;;110248;1277;9760;-81
2021/12/12 10:12:47;;;;;;;;;;;;;;;;;;110268;1277;9690;-82
2021/12/12 10:15:23;;;;;;;;;;;;;;;;;;110375;1277;9998;-81
2021/12/12 10:17:52;;;;;;;;;;;;;;;;;;110278;1277;9740;-81
2021/12/12 10:20:39;;;;;;;;;;;;;;;;;;110792;1277;7983;-81
2021/12/12 10:23:43;;;;;;;;;;;;;;;;;;110604;1277;8055;-81
2021/12/12 10:26:20;;;;;;;;;;;;;;;;;;110204;1284;9929;-81
2021/12/12 10:29:11;;;;;;;;;;;;;;;;;;110441;1277;8577;-81
2021/12/12 10:31:58;;;;;;;;;;;;;;;;;;110320;1277;8979;-81
2021/12/12 10:34:50;;;;;;;;;;;;;;;;;;110579;1277;9690;-80
2021/12/12 10:37:23;;;;;;;;;;;;;;;;;;110460;1277;9691;-82
2021/12/12 10:40:00;;;;;;;;;;;;;;;;;;110784;1275;9243;-83
2021/12/12 10:42:36;;;;;;;;;;;;;;;;;;110291;1277;8808;-81
2021/12/12 10:45:08;;;;;;;;;;;;;;;;;;110285;1277;8188;-82
2021/12/12 10:47:54;;;;;;;;;;;;;;;;;;110610;1277;9693;-81
2021/12/12 10:50:24;;;;;;;;;;;;;;;;;;110493;1277;9722;-81
2021/12/12 10:53:02;;;;;;;;;;;;;;;;;;110804;1277;9701;-81
2021/12/12 10:55:49;;;;;;;;;;;;;;;;;;110293;1277;9772;-81
2021/12/12 10:58:38;;;;;;;;;;;;;;;;;;110599;1277;9716;-81
2021/12/12 11:01:10;;;;;;;;;;;;;;;;;;110279;1277;8212;-81
2021/12/12 11:03:54;;;;;;;;;;;;;;;;;;110590;1277;8940;-81
2021/12/12 11:06:30;;;;;;;;;;;;;;;;;;110277;1277;9289;-82
2021/12/12 11:09:21;;;;;;;;;;;;;;;;;;110297;1277;8928;-81
2021/12/12 11:12:02;;;;;;;;;;;;;;;;;;110286;1277;9705;-82
2021/12/12 11:14:34;;;;;;;;;;;;;;;;;;110469;1277;8745;-83
2021/12/12 11:17:11;;;;;;;;;;;;;;;;;;110268;1277;8773;-81
2021/12/12 11:19:47;;;;;;;;;;;;;;;;;;110469;1277;8079;-81
2021/12/12 11:22:31;;;;;;;;;;;;;;;;;;110477;1277;7977;-82
2021/12/12 11:25:04;;;;;;;;;;;;;;;;;;110569;1277;9366;-81
2021/12/12 11:27:39;;;;;;;;;;;;;;;;;;110270;1277;8348;-82
2021/12/12 11:30:11;;;;;;;;;;;;;;;;;;110518;1279;9716;-80
2021/12/12 11:32:43;;;;;;;;;;;;;;;;;;110552;1277;8220;-82
2021/12/12 11:35:16;;;;;;;;;;;;;;;;;;110325;1279;8948;-82
2021/12/12 11:37:51;;;;;;;;;;;;;;;;;;110550;1279;9766;-82
2021/12/12 11:40:24;;;;;;;;;;;;;;;;;;110448;1277;8934;-83
2021/12/12 11:43:02;;;;;;;;;;;;;;;;;;110569;1277;8365;-82
2021/12/12 11:45:41;;;;;;;;;;;;;;;;;;110396;1277;9477;-83
2021/12/12 11:48:29;;;;;;;;;;;;;;;;;;110536;1277;8139;-83
2021/12/12 11:51:08;;;;;;;;;;;;;;;;;;110256;1277;8833;-83
2021/12/12 11:53:44;;;;;;;;;;;;;;;;;;110545;1277;8070;-83
2021/12/12 11:56:15;;;;;;;;;;;;;;;;;;110295;1277;8377;-82
2021/12/12 11:58:46;;;;;;;;;;;;;;;;;;110250;1277;8808;-83
2021/12/12 12:01:35;;;;;;;;;;;;;;;;;;110772;1277;9701;-84
2021/12/12 12:04:11;;;;;;;;;;;;;;;;;;110197;1279;9717;-82
2021/12/12 12:06:45;;;;;;;;;;;;;;;;;;110461;1277;9708;-81
2021/12/12 12:09:33;;;;;;;;;;;;;;;;;;110558;1277;8323;-82
2021/12/12 12:12:20;;;;;;;;;;;;;;;;;;110406;1277;8395;-81
2021/12/12 12:15:07;;;;;;;;;;;;;;;;;;110456;1277;9700;-81
2021/12/12 12:18:08;;;;;;;;;;;;;;;;;;110445;1277;8012;-80
2021/12/12 12:21:01;;;;;;;;;;;;;;;;;;110774;1277;9690;-84
2021/12/12 12:24:10;;;;;;;;;;;;;;;;;;110517;1277;8946;-82
2021/12/12 12:26:51;;;;;;;;;;;;;;;;;;110470;1277;8787;-82
2021/12/12 12:29:31;;;;;;;;;;;;;;;;;;110550;1277;8382;-82
2021/12/12 12:32:17;;;;;;;;;;;;;;;;;;110810;1277;9184;-80
2021/12/12 12:35:07;;;;;;;;;;;;;;;;;;110794;1277;8186;-80
2021/12/12 12:37:53;;;;;;;;;;;;;;;;;;110812;1277;8585;-80
2021/12/12 12:40:36;;;;;;;;;;;;;;;;;;110573;1277;317714;-81
2021/12/12 12:43:23;;;;;;;;;;;;;;;;;;110470;1277;8067;-82
2021/12/12 12:46:09;;;;;;;;;;;;;;;;;;110269;1277;9708;-81
2021/12/12 12:48:57;;;;;;;;;;;;;;;;;;110492;1277;9693;-84
2021/12/12 12:51:27;;;;;;;;;;;;;;;;;;110247;1277;9703;-81
2021/12/12 12:54:07;;;;;;;;;;;;;;;;;;110283;1277;7992;-80
2021/12/12 12:56:54;;;;;;;;;;;;;;;;;;110244;1277;9721;-80
2021/12/12 12:59:25;;;;;;;;;;;;;;;;;;110789;1277;8808;-80
2021/12/12 13:02:04;;;;;;;;;;;;;;;;;;110814;1277;9710;-81
2021/12/12 13:04:39;;;;;;;;;;;;;;;;;;110816;1277;8798;-80
2021/12/12 13:07:18;;;;;;;;;;;;;;;;;;110822;1277;8373;-80
2021/12/12 13:09:52;;;;;;;;;;;;;;;;;;110563;1277;7985;-80
2021/12/12 13:12:44;;;;;;;;;;;;;;;;;;110268;1277;9697;-81
2021/12/12 13:15:30;;;;;;;;;;;;;;;;;;110800;1276;8922;-79
2021/12/12 13:18:18;;;;;;;;;;;;;;;;;;110449;1277;9690;-80
2021/12/12 13:20:58;;;;;;;;;;;;;;;;;;110399;1275;9697;-83
2021/12/12 13:23:43;;;;;;;;;;;;;;;;;;110484;1277;7980;-82
2021/12/12 13:26:14;;;;;;;;;;;;;;;;;;110563;1277;8962;-82
2021/12/12 13:28:51;;;;;;;;;;;;;;;;;;110293;1277;8446;-82
2021/12/12 13:31:27;;;;;;;;;;;;;;;;;;110429;1276;9249;-81
2021/12/12 13:34:05;;;;;;;;;;;;;;;;;;110586;1277;8603;-81
2021/12/12 13:36:52;;;;;;;;;;;;;;;;;;110454;1277;8788;-80
2021/12/12 13:39:24;;;;;;;;;;;;;;;;;;110568;1277;9690;-80
2021/12/12 13:42:06;;;;;;;;;;;;;;;;;;110387;1277;9697;-81
2021/12/12 13:44:46;;;;;;;;;;;;;;;;;;110785;1274;8847;-81
2021/12/12 13:47:36;;;;;;;;;;;;;;;;;;110787;1277;8375;-82
2021/12/12 13:50:15;;;;;;;;;;;;;;;;;;110286;1277;9788;-82
2021/12/12 13:52:51;;;;;;;;;;;;;;;;;;110797;1275;8104;-81
2021/12/12 13:55:27;;;;;;;;;;;;;;;;;;110263;1277;9721;-81
2021/12/12 13:58:06;;;;;;;;;;;;;;;;;;110578;1274;8940;-81
2021/12/12 14:00:40;;;;;;;;;;;;;;;;;;110829;1277;9694;-82
2021/12/12 14:03:09;;;;;;;;;;;;;;;;;;110817;1277;8073;-81
2021/12/12 14:05:41;;;;;;;;;;;;;;;;;;110803;1275;9173;-81
2021/12/12 14:08:16;;;;;;;;;;;;;;;;;;110780;1277;8822;-81
2021/12/12 14:10:48;;;;;;;;;;;;;;;;;;110621;1277;8765;-81
2021/12/12 14:13:21;;;;;;;;;;;;;;;;;;110798;1277;9694;-81
2021/12/12 14:16:02;;;;;;;;;;;;;;;;;;110264;1277;9476;-83
2021/12/12 14:18:34;;;;;;;;;;;;;;;;;;110807;1277;9696;-81
2021/12/12 14:21:03;;;;;;;;;;;;;;;;;;110293;1277;9685;-82
2021/12/12 14:23:34;;;;;;;;;;;;;;;;;;110319;1277;8788;-82
2021/12/12 14:26:25;;;;;;;;;;;;;;;;;;110265;1277;9705;-81
2021/12/12 14:28:56;;;;;;;;;;;;;;;;;;110271;1277;8075;-81
2021/12/12 14:31:29;;;;;;;;;;;;;;;;;;110275;1277;8900;-82
2021/12/12 14:34:23;;;;;;;;;;;;;;;;;;110483;1277;8998;-81
2021/12/12 14:36:54;;;;;;;;;;;;;;;;;;110461;1277;9052;-81
2021/12/12 14:39:24;;;;;;;;;;;;;;;;;;110456;1276;8913;-81
2021/12/12 14:41:59;;;;;;;;;;;;;;;;;;110541;1277;8016;-81
2021/12/12 14:44:30;;;;;;;;;;;;;;;;;;110790;1277;9698;-82
2021/12/12 14:47:21;;;;;;;;;;;;;;;;;;110572;1277;7995;-82
2021/12/12 14:49:53;;;;;;;;;;;;;;;;;;110768;1276;8912;-80
2021/12/12 14:52:25;;;;;;;;;;;;;;;;;;110800;1277;8797;-81
2021/12/12 14:55:16;;;;;;;;;;;;;;;;;;110293;1277;8788;-81
2021/12/12 14:57:47;;;;;;;;;;;;;;;;;;110381;1278;9701;-78
2021/12/12 15:00:21;;;;;;;;;;;;;;;;;;110670;1277;8373;-79
2021/12/12 15:02:56;;;;;;;;;;;;;;;;;;110498;1276;8018;-79
2021/12/12 15:05:29;;;;;;;;;;;;;;;;;;110606;1276;8375;-88
2021/12/12 15:08:08;;;;;;;;;;;;;;;;;;110323;1279;7990;-79
2021/12/12 15:10:59;;;;;;;;;;;;;;;;;;110580;1277;9129;-79
2021/12/12 15:13:31;;;;;;;;;;;;;;;;;;110717;1276;9690;-81
2021/12/12 15:16:01;;;;;;;;;;;;;;;;;;110806;1277;8648;-81
2021/12/12 15:18:35;;;;;;;;;;;;;;;;;;110780;1275;7999;-77
2021/12/12 15:21:07;;;;;;;;;;;;;;;;;;110790;1276;8384;-78
2021/12/12 15:23:54;;;;;;;;;;;;;;;;;;110796;1274;8395;-80
2021/12/12 15:26:30;;;;;;;;;;;;;;;;;;110493;1276;9223;-81
2021/12/12 15:29:02;;;;;;;;;;;;;;;;;;110303;1279;8436;-81
2021/12/12 15:31:47;;;;;;;;;;;;;;;;;;110587;1276;8898;-80
2021/12/12 15:34:17;;;;;;;;;;;;;;;;;;110482;1274;8385;-80
2021/12/12 15:37:10;;;;;;;;;;;;;;;;;;110280;1274;8980;-81
2021/12/12 15:39:47;;;;;;;;;;;;;;;;;;110445;1276;8335;-81
2021/12/12 15:42:19;;;;;;;;;;;;;;;;;;110815;1274;10105;-80
2021/12/12 15:45:04;;;;;;;;;;;;;;;;;;110512;1277;8055;-80
2021/12/12 15:47:35;;;;;;;;;;;;;;;;;;110804;1276;8803;-80
2021/12/12 15:50:26;;;;;;;;;;;;;;;;;;110250;1278;7991;-85
2021/12/12 15:53:08;;;;;;;;;;;;;;;;;;110331;1279;8957;-80
2021/12/12 15:55:46;;;;;;;;;;;;;;;;;;110237;1279;8788;-79
2021/12/12 15:58:20;;;;;;;;;;;;;;;;;;110370;1277;9685;-80
2021/12/12 16:00:53;;;;;;;;;;;;;;;;;;110805;1275;8857;-82
2021/12/12 16:03:24;;;;;;;;;;;;;;;;;;110471;1279;9696;-78
2021/12/12 16:05:58;;;;;;;;;;;;;;;;;;110862;1276;7981;-81
2021/12/12 16:08:58;;;;;;;;;;;;;;;;;;110431;1278;8784;-87
2021/12/12 16:11:28;;;;;;;;;;;;;;;;;;110233;1279;8062;-86
2021/12/12 16:14:03;;;;;;;;;;;;;;;;;;110371;1279;9821;-78
2021/12/12 16:16:37;;;;;;;;;;;;;;;;;;110766;1277;8974;-78
2021/12/12 16:19:10;;;;;;;;;;;;;;;;;;110809;1277;8817;-78
2021/12/12 16:21:44;;;;;;;;;;;;;;;;;;110780;1276;7968;-79
2021/12/12 16:24:12;;;;;;;;;;;;;;;;;;110185;1279;8029;-79
2021/12/12 16:26:51;;;;;;;;;;;;;;;;;;110167;1278;8872;-79
2021/12/12 16:29:23;;;;;;;;;;;;;;;;;;110364;1278;8192;-78
2021/12/12 16:31:59;;;;;;;;;;;;;;;;;;110451;1278;8798;-76
2021/12/12 16:34:31;;;;;;;;;;;;;;;;;;110354;1277;9694;-78
2021/12/12 16:37:07;;;;;;;;;;;;;;;;;;110450;1278;8856;-77
2021/12/12 16:39:39;;;;;;;;;;;;;;;;;;110176;1278;8036;-78
2021/12/12 16:42:10;;;;;;;;;;;;;;;;;;110535;1278;8782;-77
2021/12/12 16:44:45;;;;;;;;;;;;;;;;;;110166;1279;8046;-78
2021/12/12 16:47:25;;;;;;;;;;;;;;;;;;110185;1279;7997;-77
2021/12/12 16:49:54;;;;;;;;;;;;;;;;;;110212;1278;8960;-78
2021/12/12 16:52:26;;;;;;;;;;;;;;;;;;110147;1278;8006;-78
2021/12/12 16:54:57;;;;;;;;;;;;;;;;;;110147;1279;9690;-79
2021/12/12 16:57:34;;;;;;;;;;;;;;;;;;110285;1279;9694;-78
2021/12/12 17:00:13;;;;;;;;;;;;;;;;;;110176;1279;9746;-77
2021/12/12 17:02:45;;;;;;;;;;;;;;;;;;110456;1279;9712;-78
2021/12/12 17:05:22;;;;;;;;;;;;;;;;;;110466;1278;9694;-78
2021/12/12 17:07:52;;;;;;;;;;;;;;;;;;110432;1279;8971;-77
2021/12/12 17:10:23;;;;;;;;;;;;;;;;;;110402;1276;9690;-77
2021/12/12 17:13:00;;;;;;;;;;;;;;;;;;110521;1279;8013;-77
2021/12/12 17:15:30;;;;;;;;;;;;;;;;;;110379;1279;9708;-78
2021/12/12 17:18:09;;;;;;;;;;;;;;;;;;110346;1279;7987;-78
2021/12/12 17:20:43;;;;;;;;;;;;;;;;;;110232;1279;8967;-78
2021/12/12 17:23:37;;;;;;;;;;;;;;;;;;110395;1279;8103;-78
2021/12/12 17:26:07;;;;;;;;;;;;;;;;;;110210;1281;9713;-77
2021/12/12 17:28:36;;;;;;;;;;;;;;;;;;110103;1277;8002;-78
2021/12/12 17:31:09;;;;;;;;;;;;;;;;;;110104;1280;8774;-77
2021/12/12 17:33:51;;;;;;;;;;;;;;;;;;110506;1279;9713;-77
2021/12/12 17:36:29;;;;;;;;;;;;;;;;;;110274;1278;9231;-77
2021/12/12 17:39:03;;;;;;;;;;;;;;;;;;110479;1279;8372;-78
2021/12/12 17:41:41;;;;;;;;;;;;;;;;;;110388;1279;7968;-77
2021/12/12 17:44:15;;;;;;;;;;;;;;;;;;110245;1279;8364;-77
2021/12/12 17:46:46;;;;;;;;;;;;;;;;;;110182;1276;8760;-78
2021/12/12 17:49:33;;;;;;;;;;;;;;;;;;110118;1279;9807;-79
2021/12/12 17:52:19;;;;;;;;;;;;;;;;;;110215;1278;8841;-76
2021/12/12 17:54:59;;;;;;;;;;;;;;;;;;110182;1279;10023;-77
2021/12/12 17:57:36;;;;;;;;;;;;;;;;;;110306;1280;8014;-77
2021/12/12 18:00:04;;;;;;;;;;;;;;;;;;110146;1279;9696;-78
2021/12/12 18:02:34;;;;;;;;;;;;;;;;;;110129;1279;8017;-78